sensor_id;sensor_type;location;lat;lon;timestamp;P1;durP1;ratioP1;P2;durP2;ratioP2
6113;SDS011;3087;48.392;10.836;2023-03-20T00:02:10;3.60;;;3.30;;
6113;SDS011;3087;48.392;10.836;2023-03-20T00:04:45;4.03;;;3.60;;
6113;SDS011;3087;48.392;10.836;2023-03-20T00:07:11;4.38;;;3.55;;
6113;SDS011;3087;48.392;10.836;2023-03-20T00:09:37;4.85;;;3.45;;
6113;SDS011;3087;48.392;10.836;2023-03-20T00:12:03;4.70;;;3.47;;
6113;SDS011;3087;48.392;10.836;2023-03-20T00:14:29;3.70;;;3.33;;
6113;SDS011;3087;48.392;10.836;2023-03-20T00:16:55;5.38;;;3.03;;
6113;SDS011;3087;48.392;10.836;2023-03-20T00:19:27;4.22;;;3.83;;
6113;SDS011;3087;48.392;10.836;2023-03-20T00:21:55;3.88;;;3.10;;
6113;SDS011;3087;48.392;10.836;2023-03-20T00:24:20;3.30;;;3.00;;
6113;SDS011;3087;48.392;10.836;2023-03-20T00:26:47;3.35;;;3.05;;
6113;SDS011;3087;48.392;10.836;2023-03-20T00:29:17;3.45;;;3.03;;
6113;SDS011;3087;48.392;10.836;2023-03-20T00:31:48;3.78;;;3.47;;
6113;SDS011;3087;48.392;10.836;2023-03-20T00:34:15;4.07;;;3.22;;
6113;SDS011;3087;48.392;10.836;2023-03-20T00:36:43;3.83;;;3.15;;
6113;SDS011;3087;48.392;10.836;2023-03-20T00:39:09;4.55;;;3.05;;
6113;SDS011;3087;48.392;10.836;2023-03-20T00:44:24;4.13;;;3.20;;
6113;SDS011;3087;48.392;10.836;2023-03-20T00:46:53;3.53;;;3.22;;
6113;SDS011;3087;48.392;10.836;2023-03-20T00:49:21;4.10;;;3.33;;
6113;SDS011;3087;48.392;10.836;2023-03-20T00:51:52;6.47;;;3.10;;
6113;SDS011;3087;48.392;10.836;2023-03-20T00:54:18;4.68;;;2.83;;
6113;SDS011;3087;48.392;10.836;2023-03-20T00:56:44;4.07;;;3.22;;
6113;SDS011;3087;48.392;10.836;2023-03-20T00:59:14;3.70;;;3.40;;
6113;SDS011;3087;48.392;10.836;2023-03-20T01:01:45;4.07;;;3.38;;
6113;SDS011;3087;48.392;10.836;2023-03-20T01:04:11;3.42;;;2.90;;
6113;SDS011;3087;48.392;10.836;2023-03-20T01:06:40;3.90;;;3.15;;
6113;SDS011;3087;48.392;10.836;2023-03-20T01:09:06;5.25;;;3.47;;
6113;SDS011;3087;48.392;10.836;2023-03-20T01:11:32;5.35;;;3.67;;
6113;SDS011;3087;48.392;10.836;2023-03-20T01:13:58;3.28;;;2.97;;
6113;SDS011;3087;48.392;10.836;2023-03-20T01:16:25;3.45;;;3.15;;
6113;SDS011;3087;48.392;10.836;2023-03-20T01:18:51;3.30;;;3.00;;
6113;SDS011;3087;48.392;10.836;2023-03-20T01:21:17;3.88;;;3.40;;
6113;SDS011;3087;48.392;10.836;2023-03-20T01:23:44;3.65;;;3.33;;
6113;SDS011;3087;48.392;10.836;2023-03-20T01:26:16;3.45;;;3.13;;
6113;SDS011;3087;48.392;10.836;2023-03-20T01:28:43;3.10;;;2.90;;
6113;SDS011;3087;48.392;10.836;2023-03-20T01:31:15;4.20;;;3.17;;
6113;SDS011;3087;48.392;10.836;2023-03-20T01:33:41;3.17;;;2.83;;
6113;SDS011;3087;48.392;10.836;2023-03-20T01:36:09;3.00;;;2.80;;
6113;SDS011;3087;48.392;10.836;2023-03-20T01:38:36;3.20;;;2.90;;
6113;SDS011;3087;48.392;10.836;2023-03-20T01:41:05;3.20;;;2.95;;
6113;SDS011;3087;48.392;10.836;2023-03-20T01:43:34;3.22;;;2.92;;
6113;SDS011;3087;48.392;10.836;2023-03-20T01:46:02;3.40;;;3.10;;
6113;SDS011;3087;48.392;10.836;2023-03-20T01:51:14;3.50;;;3.20;;
6113;SDS011;3087;48.392;10.836;2023-03-20T01:53:40;2.95;;;2.65;;
6113;SDS011;3087;48.392;10.836;2023-03-20T01:56:07;4.50;;;2.65;;
6113;SDS011;3087;48.392;10.836;2023-03-20T01:58:34;4.00;;;2.80;;
6113;SDS011;3087;48.392;10.836;2023-03-20T02:01:03;3.67;;;3.10;;
6113;SDS011;3087;48.392;10.836;2023-03-20T02:03:31;3.40;;;3.10;;
6113;SDS011;3087;48.392;10.836;2023-03-20T02:05:58;3.63;;;3.30;;
6113;SDS011;3087;48.392;10.836;2023-03-20T02:08:30;3.00;;;2.78;;
6113;SDS011;3087;48.392;10.836;2023-03-20T02:11:00;3.25;;;2.95;;
6113;SDS011;3087;48.392;10.836;2023-03-20T02:13:28;4.43;;;4.13;;
6113;SDS011;3087;48.392;10.836;2023-03-20T02:16:05;3.15;;;2.88;;
6113;SDS011;3087;48.392;10.836;2023-03-20T02:18:34;3.22;;;2.95;;
6113;SDS011;3087;48.392;10.836;2023-03-20T02:32:16;2.78;;;2.58;;
6113;SDS011;3087;48.392;10.836;2023-03-20T02:43:41;2.95;;;2.65;;
6113;SDS011;3087;48.392;10.836;2023-03-20T02:46:30;2.92;;;2.60;;
6113;SDS011;3087;48.392;10.836;2023-03-20T02:51:55;3.20;;;2.42;;
6113;SDS011;3087;48.392;10.836;2023-03-20T02:59:30;3.55;;;2.60;;
6113;SDS011;3087;48.392;10.836;2023-03-20T03:02:15;3.10;;;2.53;;
6113;SDS011;3087;48.392;10.836;2023-03-20T03:04:48;2.92;;;2.40;;
6113;SDS011;3087;48.392;10.836;2023-03-20T03:07:22;2.83;;;2.63;;
6113;SDS011;3087;48.392;10.836;2023-03-20T03:09:59;2.53;;;2.33;;
6113;SDS011;3087;48.392;10.836;2023-03-20T03:12:36;3.58;;;2.60;;
6113;SDS011;3087;48.392;10.836;2023-03-20T03:18:01;3.13;;;2.83;;
6113;SDS011;3087;48.392;10.836;2023-03-20T03:20:31;3.00;;;2.70;;
6113;SDS011;3087;48.392;10.836;2023-03-20T03:23:00;2.55;;;2.35;;
6113;SDS011;3087;48.392;10.836;2023-03-20T03:25:27;2.92;;;2.55;;
6113;SDS011;3087;48.392;10.836;2023-03-20T03:30:53;2.97;;;2.78;;
6113;SDS011;3087;48.392;10.836;2023-03-20T03:35:47;3.15;;;2.83;;
6113;SDS011;3087;48.392;10.836;2023-03-20T03:38:28;2.70;;;2.50;;
6113;SDS011;3087;48.392;10.836;2023-03-20T03:41:22;3.50;;;2.95;;
6113;SDS011;3087;48.392;10.836;2023-03-20T03:44:07;3.15;;;2.95;;
6113;SDS011;3087;48.392;10.836;2023-03-20T03:49:25;4.72;;;3.00;;
6113;SDS011;3087;48.392;10.836;2023-03-20T03:51:55;3.95;;;3.55;;
6113;SDS011;3087;48.392;10.836;2023-03-20T03:54:33;3.92;;;3.25;;
6113;SDS011;3087;48.392;10.836;2023-03-20T03:57:04;3.88;;;3.00;;
6113;SDS011;3087;48.392;10.836;2023-03-20T03:59:34;3.30;;;3.03;;
6113;SDS011;3087;48.392;10.836;2023-03-20T04:02:02;3.75;;;3.03;;
6113;SDS011;3087;48.392;10.836;2023-03-20T04:04:30;3.70;;;3.03;;
6113;SDS011;3087;48.392;10.836;2023-03-20T04:06:57;3.55;;;3.00;;
6113;SDS011;3087;48.392;10.836;2023-03-20T04:09:23;3.25;;;2.92;;
6113;SDS011;3087;48.392;10.836;2023-03-20T04:11:49;3.50;;;3.20;;
6113;SDS011;3087;48.392;10.836;2023-03-20T04:14:17;3.60;;;3.30;;
6113;SDS011;3087;48.392;10.836;2023-03-20T04:16:43;4.65;;;3.42;;
6113;SDS011;3087;48.392;10.836;2023-03-20T04:19:09;3.40;;;3.10;;
6113;SDS011;3087;48.392;10.836;2023-03-20T04:21:35;4.20;;;3.80;;
6113;SDS011;3087;48.392;10.836;2023-03-20T04:24:01;5.30;;;3.20;;
6113;SDS011;3087;48.392;10.836;2023-03-20T04:26:27;4.00;;;3.40;;
6113;SDS011;3087;48.392;10.836;2023-03-20T04:28:52;6.00;;;3.40;;
6113;SDS011;3087;48.392;10.836;2023-03-20T04:31:18;4.00;;;3.58;;
6113;SDS011;3087;48.392;10.836;2023-03-20T04:33:44;4.13;;;3.40;;
6113;SDS011;3087;48.392;10.836;2023-03-20T04:36:10;5.00;;;3.67;;
6113;SDS011;3087;48.392;10.836;2023-03-20T04:38:36;3.75;;;3.20;;
6113;SDS011;3087;48.392;10.836;2023-03-20T04:41:02;3.95;;;3.50;;
6113;SDS011;3087;48.392;10.836;2023-03-20T04:43:28;4.57;;;4.10;;
6113;SDS011;3087;48.392;10.836;2023-03-20T04:45:54;3.70;;;3.40;;
6113;SDS011;3087;48.392;10.836;2023-03-20T04:48:20;4.40;;;3.83;;
6113;SDS011;3087;48.392;10.836;2023-03-20T04:50:45;4.40;;;3.58;;
6113;SDS011;3087;48.392;10.836;2023-03-20T04:53:13;4.05;;;3.55;;
6113;SDS011;3087;48.392;10.836;2023-03-20T04:55:39;3.90;;;3.60;;
6113;SDS011;3087;48.392;10.836;2023-03-20T04:58:05;3.90;;;3.60;;
6113;SDS011;3087;48.392;10.836;2023-03-20T05:00:31;3.65;;;3.35;;
6113;SDS011;3087;48.392;10.836;2023-03-20T05:02:57;4.50;;;4.10;;
6113;SDS011;3087;48.392;10.836;2023-03-20T05:05:22;5.10;;;3.63;;
6113;SDS011;3087;48.392;10.836;2023-03-20T05:07:48;6.55;;;4.53;;
6113;SDS011;3087;48.392;10.836;2023-03-20T05:10:15;4.20;;;3.80;;
6113;SDS011;3087;48.392;10.836;2023-03-20T05:12:41;4.60;;;4.20;;
6113;SDS011;3087;48.392;10.836;2023-03-20T05:15:07;3.95;;;3.55;;
6113;SDS011;3087;48.392;10.836;2023-03-20T05:17:33;4.60;;;4.20;;
6113;SDS011;3087;48.392;10.836;2023-03-20T05:19:58;4.60;;;4.20;;
6113;SDS011;3087;48.392;10.836;2023-03-20T05:22:24;5.68;;;3.92;;
6113;SDS011;3087;48.392;10.836;2023-03-20T05:24:50;4.53;;;4.13;;
6113;SDS011;3087;48.392;10.836;2023-03-20T05:27:16;4.90;;;3.97;;
6113;SDS011;3087;48.392;10.836;2023-03-20T05:29:42;6.57;;;4.10;;
6113;SDS011;3087;48.392;10.836;2023-03-20T05:32:07;5.10;;;4.65;;
6113;SDS011;3087;48.392;10.836;2023-03-20T05:34:33;4.40;;;4.00;;
6113;SDS011;3087;48.392;10.836;2023-03-20T05:36:59;4.30;;;3.90;;
6113;SDS011;3087;48.392;10.836;2023-03-20T05:39:25;4.35;;;3.95;;
6113;SDS011;3087;48.392;10.836;2023-03-20T05:41:50;4.88;;;4.43;;
6113;SDS011;3087;48.392;10.836;2023-03-20T05:44:16;5.60;;;4.43;;
6113;SDS011;3087;48.392;10.836;2023-03-20T05:46:41;4.82;;;4.15;;
6113;SDS011;3087;48.392;10.836;2023-03-20T05:49:07;6.28;;;5.20;;
6113;SDS011;3087;48.392;10.836;2023-03-20T05:51:32;8.00;;;6.75;;
6113;SDS011;3087;48.392;10.836;2023-03-20T05:53:58;8.38;;;6.70;;
6113;SDS011;3087;48.392;10.836;2023-03-20T05:56:24;8.93;;;6.10;;
6113;SDS011;3087;48.392;10.836;2023-03-20T05:58:49;6.93;;;5.72;;
6113;SDS011;3087;48.392;10.836;2023-03-20T06:01:16;10.43;;;7.55;;
6113;SDS011;3087;48.392;10.836;2023-03-20T06:03:45;10.27;;;7.57;;
6113;SDS011;3087;48.392;10.836;2023-03-20T06:06:14;6.82;;;6.05;;
6113;SDS011;3087;48.392;10.836;2023-03-20T06:08:40;6.22;;;5.65;;
6113;SDS011;3087;48.392;10.836;2023-03-20T06:11:06;5.90;;;5.30;;
6113;SDS011;3087;48.392;10.836;2023-03-20T06:13:32;6.43;;;5.57;;
6113;SDS011;3087;48.392;10.836;2023-03-20T06:15:57;5.88;;;4.93;;
6113;SDS011;3087;48.392;10.836;2023-03-20T06:18:23;5.30;;;4.80;;
6113;SDS011;3087;48.392;10.836;2023-03-20T06:20:52;5.18;;;4.68;;
6113;SDS011;3087;48.392;10.836;2023-03-20T06:23:20;6.45;;;5.60;;
6113;SDS011;3087;48.392;10.836;2023-03-20T06:25:46;6.03;;;5.18;;
6113;SDS011;3087;48.392;10.836;2023-03-20T06:28:12;8.88;;;5.13;;
6113;SDS011;3087;48.392;10.836;2023-03-20T06:30:38;6.70;;;4.95;;
6113;SDS011;3087;48.392;10.836;2023-03-20T06:33:06;5.60;;;5.05;;
6113;SDS011;3087;48.392;10.836;2023-03-20T06:35:33;5.18;;;4.78;;
6113;SDS011;3087;48.392;10.836;2023-03-20T06:37:58;5.43;;;4.93;;
6113;SDS011;3087;48.392;10.836;2023-03-20T06:40:24;5.72;;;5.10;;
6113;SDS011;3087;48.392;10.836;2023-03-20T06:42:51;7.38;;;5.05;;
6113;SDS011;3087;48.392;10.836;2023-03-20T06:45:18;6.25;;;4.85;;
6113;SDS011;3087;48.392;10.836;2023-03-20T06:47:44;5.50;;;4.43;;
6113;SDS011;3087;48.392;10.836;2023-03-20T06:50:11;8.82;;;4.93;;
6113;SDS011;3087;48.392;10.836;2023-03-20T06:52:37;4.57;;;4.18;;
6113;SDS011;3087;48.392;10.836;2023-03-20T06:55:04;7.95;;;4.63;;
6113;SDS011;3087;48.392;10.836;2023-03-20T06:57:30;6.70;;;4.57;;
6113;SDS011;3087;48.392;10.836;2023-03-20T06:59:56;4.97;;;4.20;;
6113;SDS011;3087;48.392;10.836;2023-03-20T07:02:22;7.63;;;4.38;;
6113;SDS011;3087;48.392;10.836;2023-03-20T07:04:48;11.30;;;9.13;;
6113;SDS011;3087;48.392;10.836;2023-03-20T07:07:13;5.32;;;4.80;;
6113;SDS011;3087;48.392;10.836;2023-03-20T07:09:39;4.80;;;4.25;;
6113;SDS011;3087;48.392;10.836;2023-03-20T07:12:08;6.35;;;5.05;;
6113;SDS011;3087;48.392;10.836;2023-03-20T07:14:38;5.57;;;5.05;;
6113;SDS011;3087;48.392;10.836;2023-03-20T07:17:05;4.57;;;4.18;;
6113;SDS011;3087;48.392;10.836;2023-03-20T07:19:33;5.25;;;4.75;;
6113;SDS011;3087;48.392;10.836;2023-03-20T07:21:59;4.80;;;4.40;;
6113;SDS011;3087;48.392;10.836;2023-03-20T07:24:28;5.03;;;4.57;;
6113;SDS011;3087;48.392;10.836;2023-03-20T07:26:54;4.80;;;4.30;;
6113;SDS011;3087;48.392;10.836;2023-03-20T07:29:20;5.18;;;4.20;;
6113;SDS011;3087;48.392;10.836;2023-03-20T07:31:45;4.38;;;3.97;;
6113;SDS011;3087;48.392;10.836;2023-03-20T07:34:11;4.43;;;4.03;;
6113;SDS011;3087;48.392;10.836;2023-03-20T07:36:37;5.28;;;4.40;;
6113;SDS011;3087;48.392;10.836;2023-03-20T07:39:03;4.75;;;4.35;;
6113;SDS011;3087;48.392;10.836;2023-03-20T07:41:29;4.15;;;3.85;;
6113;SDS011;3087;48.392;10.836;2023-03-20T07:43:55;5.60;;;4.22;;
6113;SDS011;3087;48.392;10.836;2023-03-20T07:46:20;6.43;;;5.75;;
6113;SDS011;3087;48.392;10.836;2023-03-20T07:48:46;7.47;;;6.05;;
6113;SDS011;3087;48.392;10.836;2023-03-20T07:51:11;4.75;;;4.25;;
6113;SDS011;3087;48.392;10.836;2023-03-20T07:53:37;5.38;;;4.20;;
6113;SDS011;3087;48.392;10.836;2023-03-20T07:56:03;4.03;;;3.63;;
6113;SDS011;3087;48.392;10.836;2023-03-20T07:58:29;5.28;;;3.35;;
6113;SDS011;3087;48.392;10.836;2023-03-20T08:00:57;3.83;;;3.53;;
6113;SDS011;3087;48.392;10.836;2023-03-20T08:03:23;3.97;;;3.60;;
6113;SDS011;3087;48.392;10.836;2023-03-20T08:05:49;16.90;;;10.88;;
6113;SDS011;3087;48.392;10.836;2023-03-20T08:08:15;4.93;;;4.45;;
6113;SDS011;3087;48.392;10.836;2023-03-20T08:10:41;4.00;;;3.60;;
6113;SDS011;3087;48.392;10.836;2023-03-20T08:13:06;4.28;;;3.53;;
6113;SDS011;3087;48.392;10.836;2023-03-20T08:15:32;3.35;;;3.08;;
6113;SDS011;3087;48.392;10.836;2023-03-20T08:17:57;3.70;;;3.40;;
6113;SDS011;3087;48.392;10.836;2023-03-20T08:20:23;4.20;;;3.22;;
6113;SDS011;3087;48.392;10.836;2023-03-20T08:22:49;3.28;;;2.97;;
6113;SDS011;3087;48.392;10.836;2023-03-20T08:25:15;5.60;;;2.90;;
6113;SDS011;3087;48.392;10.836;2023-03-20T08:27:41;4.25;;;3.08;;
6113;SDS011;3087;48.392;10.836;2023-03-20T08:30:06;3.42;;;2.92;;
6113;SDS011;3087;48.392;10.836;2023-03-20T08:32:33;5.93;;;3.17;;
6113;SDS011;3087;48.392;10.836;2023-03-20T08:34:59;2.88;;;2.58;;
6113;SDS011;3087;48.392;10.836;2023-03-20T08:37:25;3.58;;;2.60;;
6113;SDS011;3087;48.392;10.836;2023-03-20T08:39:51;5.00;;;3.95;;
6113;SDS011;3087;48.392;10.836;2023-03-20T08:42:17;3.10;;;2.80;;
6113;SDS011;3087;48.392;10.836;2023-03-20T08:44:42;3.58;;;3.25;;
6113;SDS011;3087;48.392;10.836;2023-03-20T08:47:09;2.45;;;2.25;;
6113;SDS011;3087;48.392;10.836;2023-03-20T08:49:35;2.42;;;2.20;;
6113;SDS011;3087;48.392;10.836;2023-03-20T08:52:01;2.92;;;2.30;;
6113;SDS011;3087;48.392;10.836;2023-03-20T08:54:27;2.70;;;2.50;;
6113;SDS011;3087;48.392;10.836;2023-03-20T08:56:53;3.65;;;2.65;;
6113;SDS011;3087;48.392;10.836;2023-03-20T08:59:19;3.20;;;2.60;;
6113;SDS011;3087;48.392;10.836;2023-03-20T09:01:45;3.55;;;2.50;;
6113;SDS011;3087;48.392;10.836;2023-03-20T09:04:11;3.63;;;3.30;;
6113;SDS011;3087;48.392;10.836;2023-03-20T09:06:37;2.92;;;2.67;;
6113;SDS011;3087;48.392;10.836;2023-03-20T09:09:03;2.72;;;2.53;;
6113;SDS011;3087;48.392;10.836;2023-03-20T09:11:29;3.03;;;2.83;;
6113;SDS011;3087;48.392;10.836;2023-03-20T09:13:56;5.68;;;4.95;;
6113;SDS011;3087;48.392;10.836;2023-03-20T09:16:22;3.97;;;2.55;;
6113;SDS011;3087;48.392;10.836;2023-03-20T09:18:47;3.47;;;2.42;;
6113;SDS011;3087;48.392;10.836;2023-03-20T09:21:13;3.30;;;2.15;;
6113;SDS011;3087;48.392;10.836;2023-03-20T09:23:39;2.95;;;2.30;;
6113;SDS011;3087;48.392;10.836;2023-03-20T09:26:04;2.40;;;2.20;;
6113;SDS011;3087;48.392;10.836;2023-03-20T09:28:30;3.35;;;2.22;;
6113;SDS011;3087;48.392;10.836;2023-03-20T09:30:56;2.10;;;2.00;;
6113;SDS011;3087;48.392;10.836;2023-03-20T09:33:23;2.05;;;1.95;;
6113;SDS011;3087;48.392;10.836;2023-03-20T09:35:48;1.92;;;1.80;;
6113;SDS011;3087;48.392;10.836;2023-03-20T09:38:14;2.83;;;2.03;;
6113;SDS011;3087;48.392;10.836;2023-03-20T09:43:12;2.30;;;2.10;;
6113;SDS011;3087;48.392;10.836;2023-03-20T09:48:33;2.08;;;1.80;;
6113;SDS011;3087;48.392;10.836;2023-03-20T09:51:09;1.83;;;1.73;;
6113;SDS011;3087;48.392;10.836;2023-03-20T09:53:43;2.40;;;2.20;;
6113;SDS011;3087;48.392;10.836;2023-03-20T09:56:18;2.20;;;1.88;;
6113;SDS011;3087;48.392;10.836;2023-03-20T09:59:10;2.42;;;1.98;;
6113;SDS011;3087;48.392;10.836;2023-03-20T10:04:19;3.05;;;2.08;;
6113;SDS011;3087;48.392;10.836;2023-03-20T10:06:45;1.60;;;1.50;;
6113;SDS011;3087;48.392;10.836;2023-03-20T10:09:22;2.00;;;1.73;;
6113;SDS011;3087;48.392;10.836;2023-03-20T10:11:55;2.30;;;2.10;;
6113;SDS011;3087;48.392;10.836;2023-03-20T10:19:56;1.80;;;1.70;;
6113;SDS011;3087;48.392;10.836;2023-03-20T10:22:35;2.03;;;1.70;;
6113;SDS011;3087;48.392;10.836;2023-03-20T10:27:39;3.72;;;2.05;;
6113;SDS011;3087;48.392;10.836;2023-03-20T10:36:22;2.05;;;1.77;;
6113;SDS011;3087;48.392;10.836;2023-03-20T10:39:19;1.70;;;1.60;;
6113;SDS011;3087;48.392;10.836;2023-03-20T10:42:13;1.73;;;1.60;;
6113;SDS011;3087;48.392;10.836;2023-03-20T10:45:49;1.60;;;1.50;;
6113;SDS011;3087;48.392;10.836;2023-03-20T10:48:01;1.40;;;1.30;;
6113;SDS011;3087;48.392;10.836;2023-03-20T10:50:34;1.67;;;1.58;;
6113;SDS011;3087;48.392;10.836;2023-03-20T10:53:04;2.90;;;1.67;;
6113;SDS011;3087;48.392;10.836;2023-03-20T10:55:33;2.95;;;1.70;;
6113;SDS011;3087;48.392;10.836;2023-03-20T11:00:40;3.05;;;1.77;;
6113;SDS011;3087;48.392;10.836;2023-03-20T11:03:06;2.00;;;1.75;;
6113;SDS011;3087;48.392;10.836;2023-03-20T11:05:50;2.75;;;1.55;;
6113;SDS011;3087;48.392;10.836;2023-03-20T11:08:29;2.38;;;1.45;;
6113;SDS011;3087;48.392;10.836;2023-03-20T11:11:00;2.22;;;1.40;;
6113;SDS011;3087;48.392;10.836;2023-03-20T11:16:23;3.25;;;1.58;;
6113;SDS011;3087;48.392;10.836;2023-03-20T11:19:03;6.65;;;2.08;;
6113;SDS011;3087;48.392;10.836;2023-03-20T11:21:31;1.70;;;1.60;;
6113;SDS011;3087;48.392;10.836;2023-03-20T11:23:59;1.88;;;1.60;;
6113;SDS011;3087;48.392;10.836;2023-03-20T11:26:35;1.50;;;1.40;;
6113;SDS011;3087;48.392;10.836;2023-03-20T11:29:04;1.92;;;1.80;;
6113;SDS011;3087;48.392;10.836;2023-03-20T11:31:33;1.85;;;1.48;;
6113;SDS011;3087;48.392;10.836;2023-03-20T11:36:38;1.42;;;1.30;;
6113;SDS011;3087;48.392;10.836;2023-03-20T11:39:12;1.40;;;1.30;;
6113;SDS011;3087;48.392;10.836;2023-03-20T11:41:41;1.67;;;1.58;;
6113;SDS011;3087;48.392;10.836;2023-03-20T11:44:26;2.45;;;1.60;;
6113;SDS011;3087;48.392;10.836;2023-03-20T11:46:58;1.40;;;1.30;;
6113;SDS011;3087;48.392;10.836;2023-03-20T11:49:29;1.30;;;1.20;;
6113;SDS011;3087;48.392;10.836;2023-03-20T11:52:00;1.98;;;1.20;;
6113;SDS011;3087;48.392;10.836;2023-03-20T11:54:35;2.25;;;1.42;;
6113;SDS011;3087;48.392;10.836;2023-03-20T11:57:01;1.42;;;1.33;;
6113;SDS011;3087;48.392;10.836;2023-03-20T11:59:31;1.55;;;1.45;;
6113;SDS011;3087;48.392;10.836;2023-03-20T12:01:59;1.05;;;1.05;;
6113;SDS011;3087;48.392;10.836;2023-03-20T12:04:36;1.40;;;1.30;;
6113;SDS011;3087;48.392;10.836;2023-03-20T12:07:10;1.60;;;1.50;;
6113;SDS011;3087;48.392;10.836;2023-03-20T12:12:30;1.40;;;1.30;;
6113;SDS011;3087;48.392;10.836;2023-03-20T12:17:45;1.48;;;1.38;;
6113;SDS011;3087;48.392;10.836;2023-03-20T12:28:25;1.40;;;1.30;;
6113;SDS011;3087;48.392;10.836;2023-03-20T12:34:20;2.33;;;1.55;;
6113;SDS011;3087;48.392;10.836;2023-03-20T12:36:58;2.45;;;1.20;;
6113;SDS011;3087;48.392;10.836;2023-03-20T12:39:26;1.33;;;1.23;;
6113;SDS011;3087;48.392;10.836;2023-03-20T12:42:12;1.20;;;1.10;;
6113;SDS011;3087;48.392;10.836;2023-03-20T12:47:46;1.30;;;1.20;;
6113;SDS011;3087;48.392;10.836;2023-03-20T12:50:36;1.65;;;1.55;;
6113;SDS011;3087;48.392;10.836;2023-03-20T12:56:46;1.50;;;1.30;;
6113;SDS011;3087;48.392;10.836;2023-03-20T13:08:01;3.05;;;1.40;;
6113;SDS011;3087;48.392;10.836;2023-03-20T13:10:39;1.90;;;1.80;;
6113;SDS011;3087;48.392;10.836;2023-03-20T13:18:43;6.40;;;1.90;;
6113;SDS011;3087;48.392;10.836;2023-03-20T13:21:31;3.40;;;2.03;;
6113;SDS011;3087;48.392;10.836;2023-03-20T13:29:32;2.42;;;2.20;;
6113;SDS011;3087;48.392;10.836;2023-03-20T13:37:33;2.83;;;2.00;;
6113;SDS011;3087;48.392;10.836;2023-03-20T13:45:47;2.47;;;2.00;;
6113;SDS011;3087;48.392;10.836;2023-03-20T13:53:27;3.63;;;2.30;;
6113;SDS011;3087;48.392;10.836;2023-03-20T13:58:48;2.08;;;1.50;;
6113;SDS011;3087;48.392;10.836;2023-03-20T14:01:32;1.63;;;1.50;;
6113;SDS011;3087;48.392;10.836;2023-03-20T14:04:07;1.70;;;1.60;;
6113;SDS011;3087;48.392;10.836;2023-03-20T14:09:46;1.75;;;1.63;;
6113;SDS011;3087;48.392;10.836;2023-03-20T14:12:09;3.05;;;1.80;;
6113;SDS011;3087;48.392;10.836;2023-03-20T14:14:41;2.60;;;2.40;;
6113;SDS011;3087;48.392;10.836;2023-03-20T14:19:38;2.00;;;1.80;;
6113;SDS011;3087;48.392;10.836;2023-03-20T14:22:04;2.10;;;1.83;;
6113;SDS011;3087;48.392;10.836;2023-03-20T14:24:32;2.22;;;1.50;;
6113;SDS011;3087;48.392;10.836;2023-03-20T14:27:00;2.28;;;1.60;;
6113;SDS011;3087;48.392;10.836;2023-03-20T14:34:47;3.50;;;2.00;;
6113;SDS011;3087;48.392;10.836;2023-03-20T14:37:32;1.67;;;1.58;;
6113;SDS011;3087;48.392;10.836;2023-03-20T14:40:21;2.22;;;1.50;;
6113;SDS011;3087;48.392;10.836;2023-03-20T14:45:53;1.73;;;1.35;;
6113;SDS011;3087;48.392;10.836;2023-03-20T14:51:04;1.55;;;1.45;;
6113;SDS011;3087;48.392;10.836;2023-03-20T14:53:38;1.60;;;1.50;;
6113;SDS011;3087;48.392;10.836;2023-03-20T14:56:08;1.70;;;1.60;;
6113;SDS011;3087;48.392;10.836;2023-03-20T14:58:54;2.20;;;1.77;;
6113;SDS011;3087;48.392;10.836;2023-03-20T15:01:25;1.60;;;1.50;;
6113;SDS011;3087;48.392;10.836;2023-03-20T15:06:47;4.13;;;1.58;;
6113;SDS011;3087;48.392;10.836;2023-03-20T15:09:16;1.83;;;1.55;;
6113;SDS011;3087;48.392;10.836;2023-03-20T15:11:45;1.50;;;1.40;;
6113;SDS011;3087;48.392;10.836;2023-03-20T15:14:14;1.80;;;1.70;;
6113;SDS011;3087;48.392;10.836;2023-03-20T15:16:45;1.40;;;1.30;;
6113;SDS011;3087;48.392;10.836;2023-03-20T15:19:18;2.05;;;1.30;;
6113;SDS011;3087;48.392;10.836;2023-03-20T15:21:44;2.15;;;1.33;;
6113;SDS011;3087;48.392;10.836;2023-03-20T15:24:46;2.50;;;1.50;;
6113;SDS011;3087;48.392;10.836;2023-03-20T15:27:03;1.98;;;1.55;;
6113;SDS011;3087;48.392;10.836;2023-03-20T15:29:29;13.18;;;9.00;;
6113;SDS011;3087;48.392;10.836;2023-03-20T15:31:57;2.38;;;2.17;;
6113;SDS011;3087;48.392;10.836;2023-03-20T15:34:24;3.58;;;2.80;;
6113;SDS011;3087;48.392;10.836;2023-03-20T15:36:54;2.70;;;2.50;;
6113;SDS011;3087;48.392;10.836;2023-03-20T15:39:23;1.55;;;1.45;;
6113;SDS011;3087;48.392;10.836;2023-03-20T15:44:22;2.20;;;1.92;;
6113;SDS011;3087;48.392;10.836;2023-03-20T15:46:53;2.85;;;1.83;;
6113;SDS011;3087;48.392;10.836;2023-03-20T15:49:24;2.28;;;1.90;;
6113;SDS011;3087;48.392;10.836;2023-03-20T15:51:50;3.58;;;2.00;;
6113;SDS011;3087;48.392;10.836;2023-03-20T15:54:18;2.40;;;1.75;;
6113;SDS011;3087;48.392;10.836;2023-03-20T15:56:45;2.70;;;1.50;;
6113;SDS011;3087;48.392;10.836;2023-03-20T15:59:18;2.22;;;1.50;;
6113;SDS011;3087;48.392;10.836;2023-03-20T16:01:48;1.70;;;1.60;;
6113;SDS011;3087;48.392;10.836;2023-03-20T16:04:17;3.15;;;1.50;;
6113;SDS011;3087;48.392;10.836;2023-03-20T16:06:47;2.83;;;1.73;;
6113;SDS011;3087;48.392;10.836;2023-03-20T16:09:16;3.25;;;1.88;;
6113;SDS011;3087;48.392;10.836;2023-03-20T16:11:44;2.08;;;1.75;;
6113;SDS011;3087;48.392;10.836;2023-03-20T16:14:17;1.67;;;1.58;;
6113;SDS011;3087;48.392;10.836;2023-03-20T16:16:47;1.60;;;1.50;;
6113;SDS011;3087;48.392;10.836;2023-03-20T16:19:15;2.03;;;1.73;;
6113;SDS011;3087;48.392;10.836;2023-03-20T16:21:58;2.35;;;1.30;;
6113;SDS011;3087;48.392;10.836;2023-03-20T16:24:29;1.50;;;1.40;;
6113;SDS011;3087;48.392;10.836;2023-03-20T16:26:59;2.20;;;1.63;;
6113;SDS011;3087;48.392;10.836;2023-03-20T16:29:30;1.40;;;1.30;;
6113;SDS011;3087;48.392;10.836;2023-03-20T16:31:57;1.38;;;1.20;;
6113;SDS011;3087;48.392;10.836;2023-03-20T16:34:30;2.20;;;1.40;;
6113;SDS011;3087;48.392;10.836;2023-03-20T16:36:59;1.40;;;1.30;;
6113;SDS011;3087;48.392;10.836;2023-03-20T16:39:27;1.50;;;1.40;;
6113;SDS011;3087;48.392;10.836;2023-03-20T16:42:00;1.42;;;1.33;;
6113;SDS011;3087;48.392;10.836;2023-03-20T16:44:35;3.35;;;1.70;;
6113;SDS011;3087;48.392;10.836;2023-03-20T16:52:21;1.80;;;1.70;;
6113;SDS011;3087;48.392;10.836;2023-03-20T16:54:55;1.50;;;1.40;;
6113;SDS011;3087;48.392;10.836;2023-03-20T16:57:21;1.63;;;1.52;;
6113;SDS011;3087;48.392;10.836;2023-03-20T16:59:47;1.40;;;1.30;;
6113;SDS011;3087;48.392;10.836;2023-03-20T17:02:29;2.67;;;1.70;;
6113;SDS011;3087;48.392;10.836;2023-03-20T17:05:00;3.17;;;1.80;;
6113;SDS011;3087;48.392;10.836;2023-03-20T17:07:30;1.60;;;1.50;;
6113;SDS011;3087;48.392;10.836;2023-03-20T17:12:24;1.70;;;1.60;;
6113;SDS011;3087;48.392;10.836;2023-03-20T17:14:51;1.50;;;1.40;;
6113;SDS011;3087;48.392;10.836;2023-03-20T17:17:20;1.70;;;1.60;;
6113;SDS011;3087;48.392;10.836;2023-03-20T17:19:47;1.70;;;1.60;;
6113;SDS011;3087;48.392;10.836;2023-03-20T17:22:18;1.70;;;1.60;;
6113;SDS011;3087;48.392;10.836;2023-03-20T17:24:46;1.90;;;1.70;;
6113;SDS011;3087;48.392;10.836;2023-03-20T17:27:12;2.30;;;1.83;;
6113;SDS011;3087;48.392;10.836;2023-03-20T17:29:39;3.00;;;1.95;;
6113;SDS011;3087;48.392;10.836;2023-03-20T17:32:12;3.78;;;2.17;;
6113;SDS011;3087;48.392;10.836;2023-03-20T17:34:40;3.53;;;2.15;;
6113;SDS011;3087;48.392;10.836;2023-03-20T17:37:08;4.05;;;2.30;;
6113;SDS011;3087;48.392;10.836;2023-03-20T17:39:37;3.35;;;2.30;;
6113;SDS011;3087;48.392;10.836;2023-03-20T17:42:04;3.33;;;2.28;;
6113;SDS011;3087;48.392;10.836;2023-03-20T17:44:40;3.83;;;2.50;;
6113;SDS011;3087;48.392;10.836;2023-03-20T17:47:07;2.45;;;2.25;;
6113;SDS011;3087;48.392;10.836;2023-03-20T17:49:38;2.67;;;2.47;;
6113;SDS011;3087;48.392;10.836;2023-03-20T17:52:04;3.50;;;3.13;;
6113;SDS011;3087;48.392;10.836;2023-03-20T17:54:34;5.40;;;2.97;;
6113;SDS011;3087;48.392;10.836;2023-03-20T17:57:00;4.40;;;3.00;;
6113;SDS011;3087;48.392;10.836;2023-03-20T17:59:26;4.85;;;3.90;;
6113;SDS011;3087;48.392;10.836;2023-03-20T18:01:55;7.55;;;3.85;;